Terminal Aerodrome Forecast
Issued by NWS

Home | Current Version | Previous Version | Text Only | Print | Product List | Glossary On
Versions: 1 2 3 4 5 6 7 8 9 10 11 12 13 14 15 16 17
000
FTUS45 KLKN 230542
TAFELY
TAF
KELY 230542Z 2306/2406 23009KT P6SM SCT050
     FM230900 31010KT P6SM VCSH BKN050
     FM231900 30013G23KT P6SM -SHSN OVC030
     FM240300 31008KT P6SM VCSH BKN035=

USA.gov is the U.S. government's official web portal to all federal, state and local government web resources and services.